createdAt,value
2022-11-29T00:01:41.537Z,37.35
2022-11-29T00:04:10.012Z,33.80
2022-11-29T00:06:38.456Z,33.95
2022-11-29T00:09:11.812Z,36.65
2022-11-29T00:12:00.613Z,23.10
2022-11-29T00:14:29.611Z,17.00
2022-11-29T00:17:02.652Z,34.78
2022-11-29T00:19:35.979Z,29.00
2022-11-29T00:22:04.871Z,38.40
2022-11-29T00:24:33.264Z,36.28
2022-11-29T00:27:01.953Z,25.00
2022-11-29T00:29:31.065Z,33.28
2022-11-29T00:31:59.688Z,20.58
2022-11-29T00:34:28.475Z,40.65
2022-11-29T00:36:57.085Z,21.38
2022-11-29T00:39:25.296Z,32.08
2022-11-29T00:41:53.493Z,31.92
2022-11-29T00:44:21.426Z,28.30
2022-11-29T00:46:50.093Z,34.53
2022-11-29T00:49:18.154Z,41.15
2022-11-29T00:51:47.106Z,25.45
2022-11-29T00:54:15.723Z,35.45
2022-11-29T00:56:43.957Z,24.73
2022-11-29T00:59:11.921Z,37.60
2022-11-29T01:01:40.042Z,30.92
2022-11-29T01:04:08.033Z,31.38
2022-11-29T01:06:36.053Z,35.92
2022-11-29T01:09:05.643Z,33.25
2022-11-29T01:11:34.198Z,33.65
2022-11-29T01:14:03.872Z,34.55
2022-11-29T01:16:32.980Z,40.55
2022-11-29T01:19:01.413Z,40.65
2022-11-29T01:21:29.921Z,23.77
2022-11-29T01:23:57.987Z,33.47
2022-11-29T01:26:30.433Z,29.15
2022-11-29T01:28:59.238Z,31.88
2022-11-29T01:31:32.656Z,30.13
2022-11-29T01:34:03.277Z,34.58
2022-11-29T01:36:31.751Z,26.67
2022-11-29T01:39:02.130Z,24.08
2022-11-29T01:41:33.360Z,36.65
2022-11-29T01:44:14.253Z,33.35
2022-11-29T01:46:46.132Z,33.95
2022-11-29T01:49:34.638Z,24.88
2022-11-29T01:52:11.397Z,23.65
2022-11-29T01:54:44.759Z,27.92
2022-11-29T01:57:14.566Z,36.67
2022-11-29T01:59:48.304Z,22.50
2022-11-29T02:02:33.968Z,27.15
2022-11-29T02:05:05.448Z,33.55
2022-11-29T02:07:33.722Z,34.35
2022-11-29T02:10:04.329Z,31.40
2022-11-29T02:13:25.059Z,28.70
2022-11-29T02:16:17.758Z,27.15
2022-11-29T02:19:19.214Z,21.83
2022-11-29T02:22:20.769Z,23.77
2022-11-29T02:25:18.150Z,29.10
2022-11-29T02:28:17.077Z,27.30
2022-11-29T02:31:22.402Z,28.98
2022-11-29T02:34:21.260Z,32.63
2022-11-29T02:37:16.968Z,19.92
2022-11-29T02:40:37.671Z,28.88
2022-11-29T02:43:14.652Z,25.70
2022-11-29T02:46:11.820Z,22.77
2022-11-29T02:49:12.490Z,24.58
2022-11-29T02:51:58.234Z,23.23
2022-11-29T02:54:35.643Z,30.50
2022-11-29T02:57:49.910Z,29.65
2022-11-29T03:00:22.228Z,29.92
2022-11-29T03:03:10.311Z,25.55
2022-11-29T03:06:05.471Z,21.40
2022-11-29T03:09:00.818Z,29.85
2022-11-29T03:11:55.936Z,22.02
2022-11-29T03:14:39.712Z,24.02
2022-11-29T03:17:58.854Z,32.35
2022-11-29T03:21:07.060Z,22.73
2022-11-29T03:23:45.005Z,27.70
2022-11-29T03:26:46.390Z,21.33
2022-11-29T03:29:40.775Z,30.50
2022-11-29T03:32:57.119Z,26.08
2022-11-29T03:35:41.526Z,19.80
2022-11-29T03:38:37.980Z,19.85
2022-11-29T03:41:17.565Z,25.58
2022-11-29T03:44:10.280Z,29.80
2022-11-29T03:47:02.291Z,18.13
2022-11-29T03:52:38.688Z,21.10
2022-11-29T03:55:29.225Z,14.77
2022-11-29T03:58:27.844Z,26.08
2022-11-29T04:01:20.762Z,27.55
2022-11-29T04:04:22.511Z,27.88
2022-11-29T04:07:34.949Z,20.77
2022-11-29T04:10:25.613Z,25.60
2022-11-29T04:13:19.525Z,27.35
2022-11-29T04:16:08.826Z,32.40
2022-11-29T04:18:53.526Z,27.52
2022-11-29T04:21:53.610Z,18.25
2022-11-29T04:24:54.770Z,21.08
2022-11-29T04:28:10.014Z,19.08
2022-11-29T04:31:21.671Z,17.35
2022-11-29T04:34:30.033Z,21.17
2022-11-29T04:37:37.689Z,32.53
2022-11-29T04:40:33.623Z,32.85
2022-11-29T04:43:39.598Z,30.85
2022-11-29T04:46:25.602Z,26.60
2022-11-29T04:49:07.664Z,34.58
2022-11-29T04:52:01.750Z,28.50
2022-11-29T04:54:51.976Z,26.08
2022-11-29T04:57:37.356Z,18.27
2022-11-29T05:00:12.890Z,24.25
2022-11-29T05:03:06.434Z,34.08
2022-11-29T05:05:45.777Z,20.25
2022-11-29T05:08:48.924Z,29.30
2022-11-29T05:11:43.217Z,25.90
2022-11-29T05:14:45.195Z,25.42
2022-11-29T05:17:31.913Z,25.40
2022-11-29T05:20:31.969Z,16.15
2022-11-29T05:23:54.153Z,20.00
2022-11-29T05:26:59.998Z,30.52
2022-11-29T05:30:00.714Z,27.48
2022-11-29T05:32:47.189Z,25.23
2022-11-29T05:35:36.919Z,15.82
2022-11-29T05:38:45.627Z,25.50
2022-11-29T05:41:31.923Z,30.88
2022-11-29T05:44:45.093Z,30.25
2022-11-29T05:47:26.877Z,24.45
2022-11-29T05:50:16.554Z,28.60
2022-11-29T05:53:35.960Z,30.02
2022-11-29T05:56:19.285Z,16.00
2022-11-29T05:58:53.989Z,21.20
2022-11-29T06:02:02.219Z,19.88
2022-11-29T06:04:59.155Z,25.00
2022-11-29T06:07:33.621Z,17.58
2022-11-29T06:10:40.625Z,21.73
2022-11-29T06:13:30.281Z,28.42
2022-11-29T06:16:48.063Z,21.42
2022-11-29T06:19:49.306Z,27.48
2022-11-29T06:22:35.363Z,28.02
2022-11-29T06:25:53.494Z,18.27
2022-11-29T06:28:30.587Z,21.67
2022-11-29T06:31:20.224Z,26.08
2022-11-29T06:34:05.899Z,22.48
2022-11-29T06:37:12.830Z,16.70
2022-11-29T06:39:41.175Z,24.52
2022-11-29T06:42:09.404Z,24.48
2022-11-29T06:44:37.668Z,15.80
2022-11-29T06:47:45.607Z,25.27
2022-11-29T06:50:34.558Z,24.77
2022-11-29T06:53:43.330Z,22.63
2022-11-29T06:56:29.994Z,25.70
2022-11-29T06:59:33.404Z,22.20
2022-11-29T07:02:11.163Z,16.73
2022-11-29T07:04:57.994Z,23.02
2022-11-29T07:07:26.344Z,20.33
2022-11-29T07:10:00.741Z,20.52
2022-11-29T07:12:29.169Z,19.63
2022-11-29T07:14:58.688Z,23.33
2022-11-29T07:17:43.030Z,16.55
2022-11-29T07:20:42.508Z,19.27
2022-11-29T07:23:33.497Z,20.48
2022-11-29T07:26:37.077Z,12.93
2022-11-29T07:29:45.690Z,15.90
2022-11-29T07:33:00.613Z,27.08
2022-11-29T07:35:47.673Z,22.25
2022-11-29T07:38:24.617Z,18.55
2022-11-29T07:41:21.398Z,20.92
2022-11-29T07:44:35.018Z,15.55
2022-11-29T07:47:03.490Z,22.35
2022-11-29T07:49:32.360Z,24.40
2022-11-29T07:52:01.448Z,21.92
2022-11-29T07:54:30.633Z,25.38
2022-11-29T07:56:58.899Z,26.92
2022-11-29T07:59:27.022Z,22.80
2022-11-29T08:01:56.618Z,24.42
2022-11-29T08:04:25.795Z,25.67
2022-11-29T08:06:53.915Z,18.20
2022-11-29T08:09:22.006Z,20.95
2022-11-29T08:11:50.216Z,17.02
2022-11-29T08:14:20.266Z,13.60
2022-11-29T08:16:48.503Z,20.75
2022-11-29T08:19:16.720Z,24.52
2022-11-29T08:21:47.077Z,19.35
2022-11-29T08:24:15.438Z,18.80
2022-11-29T08:26:43.781Z,27.90
2022-11-29T08:29:12.655Z,15.40
2022-11-29T08:31:41.063Z,17.48
2022-11-29T08:34:10.852Z,23.33
2022-11-29T08:36:39.131Z,17.80
2022-11-29T08:39:09.508Z,24.38
2022-11-29T08:41:37.872Z,24.15
2022-11-29T08:44:06.805Z,15.18
2022-11-29T08:46:53.837Z,24.92
2022-11-29T08:49:21.990Z,19.70
2022-11-29T08:51:53.454Z,24.05
2022-11-29T08:54:22.874Z,19.83
2022-11-29T08:57:37.864Z,26.15
2022-11-29T08:59:39.480Z,26.33
2022-11-29T09:02:07.657Z,15.90
2022-11-29T09:04:35.757Z,24.42
2022-11-29T09:07:04.720Z,19.73
2022-11-29T09:09:33.820Z,15.65
2022-11-29T09:12:01.893Z,19.55
2022-11-29T09:14:31.061Z,23.52
2022-11-29T09:16:59.852Z,21.65
2022-11-29T09:19:28.747Z,16.80
2022-11-29T09:21:57.513Z,18.23
2022-11-29T09:24:26.757Z,23.40
2022-11-29T09:26:55.495Z,29.42
2022-11-29T09:29:24.917Z,22.35
2022-11-29T09:31:53.116Z,27.70
2022-11-29T09:34:21.332Z,20.83
2022-11-29T09:36:49.361Z,20.05
2022-11-29T09:39:17.421Z,16.88
2022-11-29T09:42:10.324Z,14.93
2022-11-29T09:45:02.071Z,17.98
2022-11-29T09:47:39.329Z,15.68
2022-11-29T09:50:31.466Z,18.63
2022-11-29T09:56:27.341Z,17.20
2022-11-29T09:59:10.085Z,25.27
2022-11-29T10:01:47.403Z,22.25
2022-11-29T10:04:21.718Z,16.08
2022-11-29T10:07:02.886Z,16.88
2022-11-29T10:09:48.148Z,25.80
2022-11-29T10:12:54.843Z,23.60
2022-11-29T10:15:31.787Z,22.60
2022-11-29T10:18:19.337Z,19.55
2022-11-29T10:20:52.969Z,23.25
2022-11-29T10:23:45.836Z,23.50
2022-11-29T10:26:14.479Z,19.10
2022-11-29T10:28:47.719Z,21.10
2022-11-29T10:31:25.439Z,21.45
2022-11-29T10:33:55.846Z,19.15
2022-11-29T10:36:49.333Z,19.08
2022-11-29T10:39:25.302Z,23.77
2022-11-29T10:42:01.153Z,20.67
2022-11-29T10:44:32.153Z,22.92
2022-11-29T10:47:10.406Z,24.83
2022-11-29T10:49:40.372Z,24.65
2022-11-29T10:52:23.184Z,26.73
2022-11-29T10:54:57.271Z,23.83
2022-11-29T10:57:25.817Z,24.67
2022-11-29T11:00:02.394Z,20.77
2022-11-29T11:02:33.203Z,28.48
2022-11-29T11:05:03.075Z,22.50
2022-11-29T11:07:36.627Z,22.92
2022-11-29T11:10:28.989Z,24.75
2022-11-29T11:13:24.342Z,22.00
2022-11-29T11:16:29.702Z,29.45
2022-11-29T11:19:34.276Z,25.05
2022-11-29T11:22:04.282Z,22.33
2022-11-29T11:24:40.242Z,23.75
2022-11-29T11:27:08.517Z,23.30
2022-11-29T11:29:44.964Z,20.23
2022-11-29T11:32:20.461Z,18.20
2022-11-29T11:35:01.880Z,13.60
2022-11-29T11:37:35.861Z,25.48
2022-11-29T11:40:30.206Z,17.70
2022-11-29T11:43:02.181Z,24.00
2022-11-29T11:45:36.933Z,22.80
2022-11-29T11:48:14.782Z,26.80
2022-11-29T11:50:53.285Z,27.40
2022-11-29T11:53:37.952Z,19.40
2022-11-29T11:56:13.572Z,18.77
2022-11-29T11:58:44.504Z,19.38
2022-11-29T12:01:12.714Z,23.92
2022-11-29T12:03:49.610Z,22.48
2022-11-29T12:06:28.986Z,23.05
2022-11-29T12:09:35.144Z,15.57
2022-11-29T12:12:21.534Z,22.08
2022-11-29T12:15:07.991Z,23.25
2022-11-29T12:17:59.200Z,24.42
2022-11-29T12:21:03.573Z,20.52
2022-11-29T12:23:40.926Z,24.20
2022-11-29T12:29:31.683Z,20.02
2022-11-29T12:32:14.518Z,19.20
2022-11-29T12:35:19.686Z,18.92
2022-11-29T12:38:26.270Z,20.45
2022-11-29T12:41:38.680Z,20.95
2022-11-29T12:44:25.198Z,14.65
2022-11-29T12:47:37.272Z,17.05
2022-11-29T12:50:40.685Z,20.25
2022-11-29T12:53:37.993Z,18.38
2022-11-29T12:56:28.323Z,21.30
2022-11-29T12:59:23.280Z,18.65
2022-11-29T13:02:46.003Z,25.17
2022-11-29T13:05:38.816Z,21.38
2022-11-29T13:08:19.175Z,14.68
2022-11-29T13:11:14.542Z,23.58
2022-11-29T13:13:48.765Z,27.52
2022-11-29T13:16:27.712Z,22.50
2022-11-29T13:21:57.076Z,19.80
2022-11-29T13:24:42.907Z,17.35
2022-11-29T13:27:19.824Z,26.98
2022-11-29T13:29:48.734Z,25.10
2022-11-29T13:32:45.800Z,21.05
2022-11-29T13:35:58.299Z,20.48
2022-11-29T13:38:43.663Z,24.38
2022-11-29T13:41:52.984Z,19.83
2022-11-29T13:44:24.036Z,22.50
2022-11-29T13:50:02.747Z,22.30
2022-11-29T13:52:43.746Z,21.35
2022-11-29T13:55:11.810Z,25.17
2022-11-29T13:58:18.063Z,26.13
2022-11-29T14:00:51.928Z,25.65
2022-11-29T14:03:28.801Z,25.98
2022-11-29T14:06:12.824Z,19.88
2022-11-29T14:09:17.737Z,34.15
2022-11-29T14:12:04.215Z,29.08
2022-11-29T14:14:54.643Z,34.35
2022-11-29T14:17:34.202Z,22.40
2022-11-29T14:20:23.579Z,28.95
2022-11-29T14:23:16.928Z,24.48
2022-11-29T14:25:57.421Z,28.15
2022-11-29T14:28:31.835Z,26.27
2022-11-29T14:31:05.567Z,25.33
2022-11-29T14:34:13.634Z,26.85
2022-11-29T14:36:54.987Z,28.40
2022-11-29T14:39:48.209Z,28.20
2022-11-29T14:42:22.534Z,32.08
2022-11-29T14:44:58.610Z,18.02
2022-11-29T14:47:47.386Z,38.25
2022-11-29T14:50:39.989Z,59.47
2022-11-29T14:53:30.671Z,54.67
2022-11-29T14:56:30.219Z,48.50
2022-11-29T14:59:36.139Z,35.33
2022-11-29T15:02:48.218Z,41.42
2022-11-29T15:05:54.268Z,62.20
2022-11-29T15:09:17.403Z,24.73
2022-11-29T15:12:04.302Z,26.02
2022-11-29T15:14:58.877Z,21.45
2022-11-29T15:17:43.608Z,29.83
2022-11-29T15:20:55.350Z,27.55
2022-11-29T15:25:59.514Z,25.50
2022-11-29T15:28:33.453Z,29.27
2022-11-29T15:31:15.182Z,30.92
2022-11-29T15:33:46.279Z,25.58
2022-11-29T15:36:24.439Z,25.70
2022-11-29T15:38:57.506Z,24.80
2022-11-29T15:41:35.604Z,28.77
2022-11-29T15:44:19.756Z,27.30
2022-11-29T15:46:47.970Z,27.27
2022-11-29T15:49:25.780Z,21.00
2022-11-29T15:52:07.993Z,29.23
2022-11-29T15:54:46.235Z,32.45
2022-11-29T15:57:27.691Z,25.15
2022-11-29T16:00:01.497Z,18.73
2022-11-29T16:03:02.496Z,24.00
2022-11-29T16:05:37.570Z,27.38
2022-11-29T16:08:14.750Z,27.25
2022-11-29T16:10:51.870Z,25.77
2022-11-29T16:13:33.900Z,19.35
2022-11-29T16:16:15.918Z,23.10
2022-11-29T16:18:47.094Z,28.58
2022-11-29T16:21:29.309Z,22.88
2022-11-29T16:23:59.141Z,17.88
2022-11-29T16:26:34.095Z,25.45
2022-11-29T16:29:03.246Z,15.18
2022-11-29T16:31:37.909Z,20.10
2022-11-29T16:34:30.179Z,25.00
2022-11-29T16:37:07.897Z,33.67
2022-11-29T16:39:38.799Z,32.25
2022-11-29T16:42:26.359Z,35.30
2022-11-29T16:44:55.384Z,33.03
2022-11-29T16:47:28.354Z,32.67
2022-11-29T16:50:02.381Z,38.10
2022-11-29T16:52:33.821Z,43.00
2022-11-29T16:55:02.212Z,34.53
2022-11-29T16:57:31.395Z,37.40
2022-11-29T16:59:59.522Z,37.35
2022-11-29T17:02:30.249Z,35.55
2022-11-29T17:04:58.716Z,42.88
2022-11-29T17:07:35.534Z,31.45
2022-11-29T17:10:08.541Z,35.80
2022-11-29T17:12:47.775Z,39.95
2022-11-29T17:15:17.497Z,38.67
2022-11-29T17:17:46.141Z,36.90
2022-11-29T17:20:14.360Z,45.45
2022-11-29T17:22:42.408Z,50.05
2022-11-29T17:25:11.361Z,38.55
2022-11-29T17:27:39.580Z,34.25
2022-11-29T17:30:08.671Z,39.63
2022-11-29T17:32:37.418Z,44.28
2022-11-29T17:35:08.868Z,44.30
2022-11-29T17:37:37.054Z,48.28
2022-11-29T17:40:06.506Z,41.97
2022-11-29T17:42:34.617Z,27.52
2022-11-29T17:45:02.798Z,36.83
2022-11-29T17:47:32.333Z,39.55
2022-11-29T17:50:00.271Z,39.45
2022-11-29T17:52:28.265Z,39.13
2022-11-29T17:54:56.823Z,35.13
2022-11-29T17:57:25.043Z,40.72
2022-11-29T17:59:53.120Z,38.00
2022-11-29T18:02:21.375Z,41.15
2022-11-29T18:04:49.464Z,41.97
2022-11-29T18:07:18.445Z,46.65
2022-11-29T18:09:48.567Z,41.47
2022-11-29T18:12:17.110Z,38.67
2022-11-29T18:14:45.121Z,44.45
2022-11-29T18:17:13.428Z,51.00
2022-11-29T18:19:42.676Z,49.47
2022-11-29T18:22:10.647Z,28.95
2022-11-29T18:24:41.724Z,46.38
2022-11-29T18:27:15.494Z,44.25
2022-11-29T18:29:46.225Z,40.13
2022-11-29T18:32:17.718Z,40.63
2022-11-29T18:34:47.126Z,35.45
2022-11-29T18:37:28.278Z,38.47
2022-11-29T18:40:04.081Z,33.10
2022-11-29T18:42:32.116Z,43.50
2022-11-29T18:45:00.318Z,40.42
2022-11-29T18:47:30.869Z,46.28
2022-11-29T18:49:58.967Z,39.63
2022-11-29T18:52:26.907Z,40.05
2022-11-29T18:54:55.763Z,37.15
2022-11-29T18:57:23.982Z,39.45
2022-11-29T18:59:52.138Z,33.75
2022-11-29T19:02:20.893Z,45.65
2022-11-29T19:04:50.375Z,51.45
2022-11-29T19:07:18.462Z,52.75
2022-11-29T19:09:46.796Z,44.47
2022-11-29T19:12:14.889Z,48.78
2022-11-29T19:14:49.505Z,45.70
2022-11-29T19:17:18.949Z,43.35
2022-11-29T19:19:47.373Z,43.33
2022-11-29T19:22:15.932Z,39.90
2022-11-29T19:24:44.315Z,40.55
2022-11-29T19:27:13.133Z,41.13
2022-11-29T19:29:41.256Z,34.72
2022-11-29T19:32:10.002Z,31.67
2022-11-29T19:34:38.210Z,40.38
2022-11-29T19:37:06.640Z,35.55
2022-11-29T19:39:35.022Z,39.22
2022-11-29T19:42:03.425Z,36.90
2022-11-29T19:44:35.894Z,42.72
2022-11-29T19:47:17.329Z,38.00
2022-11-29T19:49:46.875Z,45.88
2022-11-29T19:52:15.097Z,42.78
2022-11-29T19:54:43.276Z,36.47
2022-11-29T19:57:13.051Z,37.88
2022-11-29T19:59:41.703Z,29.25
2022-11-29T20:02:12.148Z,28.35
2022-11-29T20:04:40.293Z,36.88
2022-11-29T20:07:08.524Z,32.85
2022-11-29T20:09:36.966Z,32.13
2022-11-29T20:12:05.110Z,30.75
2022-11-29T20:14:33.295Z,34.42
2022-11-29T20:17:01.618Z,35.60
2022-11-29T20:19:29.628Z,36.67
2022-11-29T20:21:57.805Z,50.10
2022-11-29T20:24:26.003Z,43.92
2022-11-29T20:26:54.035Z,43.60
2022-11-29T20:29:27.146Z,52.08
2022-11-29T20:31:55.953Z,43.13
2022-11-29T20:34:24.065Z,34.47
2022-11-29T20:37:28.519Z,42.42
2022-11-29T20:40:19.265Z,36.70
2022-11-29T20:43:47.128Z,35.38
2022-11-29T20:46:15.388Z,37.95
2022-11-29T20:48:43.904Z,37.30
2022-11-29T20:51:30.232Z,28.80
2022-11-29T20:54:02.632Z,34.45
2022-11-29T20:59:07.862Z,33.85
2022-11-29T21:01:36.292Z,35.47
2022-11-29T21:04:04.696Z,40.08
2022-11-29T21:06:36.417Z,35.22
2022-11-29T21:11:33.659Z,33.28
2022-11-29T21:14:05.055Z,42.30
2022-11-29T21:16:33.882Z,36.13
2022-11-29T21:19:04.218Z,39.83
2022-11-29T21:21:51.712Z,32.33
2022-11-29T21:24:29.567Z,42.30
2022-11-29T21:26:58.447Z,41.03
2022-11-29T21:29:28.003Z,41.55
2022-11-29T21:31:57.038Z,35.75
2022-11-29T21:34:25.069Z,38.13
2022-11-29T21:37:19.198Z,49.38
2022-11-29T21:39:49.573Z,42.05
2022-11-29T21:42:17.920Z,47.30
2022-11-29T21:44:46.688Z,51.05
2022-11-29T21:47:15.995Z,47.97
2022-11-29T21:49:44.281Z,37.42
2022-11-29T21:52:15.347Z,50.83
2022-11-29T21:54:46.941Z,48.22
2022-11-29T21:57:15.095Z,49.10
2022-11-29T21:59:48.271Z,51.13
2022-11-29T22:02:18.512Z,43.20
2022-11-29T22:04:48.954Z,41.90
2022-11-29T22:07:17.110Z,52.22
2022-11-29T22:09:47.211Z,58.05
2022-11-29T22:12:52.798Z,54.63
2022-11-29T22:18:02.048Z,38.17
2022-11-29T22:20:30.633Z,44.28
2022-11-29T22:23:14.241Z,30.80
2022-11-29T22:25:42.577Z,32.60
2022-11-29T22:28:10.538Z,21.33
2022-11-29T22:30:38.551Z,31.38
2022-11-29T22:33:11.824Z,25.75
2022-11-29T22:35:44.815Z,23.23
2022-11-29T22:38:12.988Z,19.77
2022-11-29T22:40:41.105Z,26.38
2022-11-29T22:43:09.041Z,31.33
2022-11-29T22:45:37.128Z,30.30
2022-11-29T22:48:05.279Z,23.80
2022-11-29T22:50:34.071Z,33.20
2022-11-29T22:53:02.134Z,33.08
2022-11-29T22:55:30.026Z,33.70
2022-11-29T22:57:58.157Z,32.53
2022-11-29T23:00:26.487Z,34.50
2022-11-29T23:02:57.871Z,25.77
2022-11-29T23:05:31.965Z,22.55
2022-11-29T23:08:00.539Z,24.30
2022-11-29T23:10:28.813Z,23.85
2022-11-29T23:12:59.646Z,28.77
2022-11-29T23:15:27.574Z,23.00
2022-11-29T23:17:57.805Z,24.42
2022-11-29T23:20:26.902Z,28.45
2022-11-29T23:22:54.745Z,27.33
2022-11-29T23:25:22.805Z,27.70
2022-11-29T23:27:50.881Z,34.78
2022-11-29T23:30:18.824Z,35.88
2022-11-29T23:32:47.040Z,29.88
2022-11-29T23:35:15.015Z,25.05
2022-11-29T23:37:42.861Z,22.27
2022-11-29T23:40:11.454Z,27.80
2022-11-29T23:42:42.419Z,20.90
2022-11-29T23:45:13.407Z,29.35
2022-11-29T23:47:41.300Z,27.85
2022-11-29T23:50:10.806Z,31.42
2022-11-29T23:52:39.238Z,28.60
2022-11-29T23:55:07.644Z,28.58
2022-11-29T23:57:35.526Z,33.88
